Time;durP1;ratioP1;P1;durP2;ratioP2;P2;SDS_P1;SDS_P2;PMS_P1;PMS_P2;Temp;Humidity;BMP_temperature;BMP_pressure;BME280_temperature;BME280_humidity;BME280_pressure;Samples;Min_cycle;Max_cycle;Signal;HPM_P1;HPM_P2
2022/05/11 00:01:29;;;;;;;10.70;6.28;;;22.10;1.00;;;;;;5053329;28;20025;-63
2022/05/11 00:03:58;;;;;;;12.43;6.82;;;22.20;1.00;;;;;;5053026;28;21410;-62
2022/05/11 00:06:25;;;;;;;10.15;6.47;;;22.10;1.00;;;;;;5051977;28;20115;-63
2022/05/11 00:08:56;;;;;;;10.98;6.35;;;22.20;1.00;;;;;;5054203;28;20394;-63
2022/05/11 00:11:23;;;;;;;11.35;6.38;;;22.10;1.00;;;;;;5053291;28;20390;-63
2022/05/11 00:13:49;;;;;;;10.15;6.75;;;22.00;1.00;;;;;;5052170;28;20025;-63
2022/05/11 00:16:15;;;;;;;10.32;5.85;;;22.00;1.00;;;;;;5052084;28;20452;-63
2022/05/11 00:18:41;;;;;;;7.60;6.78;;;22.00;1.00;;;;;;5052629;28;20083;-63
2022/05/11 00:21:08;;;;;;;8.75;6.55;;;22.00;1.00;;;;;;5048748;28;20082;-63
2022/05/11 00:23:33;;;;;;;10.57;6.72;;;22.00;1.00;;;;;;5052256;28;20437;-63
2022/05/11 00:26:00;;;;;;;8.65;6.32;;;21.90;1.00;;;;;;5053256;28;20106;-63
2022/05/11 00:28:26;;;;;;;10.13;6.35;;;21.90;1.00;;;;;;5052724;28;20021;-63
2022/05/11 00:30:52;;;;;;;12.48;6.53;;;21.90;1.00;;;;;;5052381;28;20082;-63
2022/05/11 00:33:19;;;;;;;9.05;6.68;;;21.90;1.00;;;;;;5051198;28;20128;-63
2022/05/11 00:35:46;;;;;;;8.88;6.47;;;21.90;1.00;;;;;;5051116;28;20143;-63
2022/05/11 00:38:13;;;;;;;9.88;7.07;;;21.90;1.00;;;;;;5051270;28;20029;-63
2022/05/11 00:40:41;;;;;;;11.40;6.68;;;21.80;1.00;;;;;;5053481;28;20045;-63
2022/05/11 00:43:08;;;;;;;10.27;6.65;;;21.80;1.00;;;;;;5051258;28;20087;-63
2022/05/11 00:45:34;;;;;;;8.30;6.07;;;21.80;1.00;;;;;;5050304;28;20057;-62
2022/05/11 00:50:54;;;;;;;7.07;5.90;;;21.70;1.00;;;;;;5051766;28;20139;-63
2022/05/11 00:53:20;;;;;;;10.20;6.35;;;21.60;1.00;;;;;;5052215;28;20036;-64
2022/05/11 00:55:53;;;;;;;6.97;6.05;;;21.60;1.00;;;;;;5051791;28;20021;-63
2022/05/11 00:58:33;;;;;;;11.25;7.13;;;21.60;1.00;;;;;;5051235;28;20066;-63
2022/05/11 01:00:59;;;;;;;11.05;6.65;;;21.60;1.00;;;;;;5046150;28;20037;-64
2022/05/11 01:03:33;;;;;;;9.45;6.97;;;21.50;1.00;;;;;;5056246;28;20036;-63
2022/05/11 01:05:59;;;;;;;11.20;6.50;;;21.50;1.00;;;;;;5052234;28;20105;-63
2022/05/11 01:08:28;;;;;;;10.52;7.70;;;21.50;1.00;;;;;;5050627;28;20089;-63
2022/05/11 01:10:54;;;;;;;11.60;6.57;;;21.40;1.00;;;;;;5051336;28;20028;-63
2022/05/11 01:13:21;;;;;;;7.95;7.00;;;21.50;1.00;;;;;;5049048;28;20025;-63
2022/05/11 01:15:49;;;;;;;13.30;6.35;;;21.50;1.00;;;;;;5052059;28;20056;-63
2022/05/11 01:18:16;;;;;;;10.95;7.38;;;21.40;1.00;;;;;;5050455;28;20479;-63
2022/05/11 01:20:44;;;;;;;9.63;7.30;;;21.40;1.00;;;;;;5050455;28;20498;-64
2022/05/11 01:23:16;;;;;;;9.55;6.97;;;21.40;1.00;;;;;;5050860;28;20158;-63
2022/05/11 01:25:42;;;;;;;12.55;7.25;;;21.40;1.00;;;;;;5051874;28;20559;-63
2022/05/11 01:28:11;;;;;;;8.00;6.50;;;21.40;1.00;;;;;;5050920;28;20041;-63
2022/05/11 01:30:39;;;;;;;8.38;7.05;;;21.40;1.00;;;;;;5050864;28;20049;-63
2022/05/11 01:33:06;;;;;;;8.90;7.30;;;21.30;1.00;;;;;;5046477;28;20025;-63
2022/05/11 01:35:53;;;;;;;11.57;8.10;;;21.30;1.00;;;;;;5050268;28;20370;-62
2022/05/11 01:38:34;;;;;;;11.75;7.65;;;21.30;1.00;;;;;;5050633;28;20387;-63
2022/05/11 01:41:01;;;;;;;12.25;7.53;;;21.20;1.00;;;;;;5051459;28;20025;-63
2022/05/11 01:43:35;;;;;;;9.35;7.05;;;21.30;1.00;;;;;;5051710;28;20493;-63
2022/05/11 01:46:00;;;;;;;11.23;6.80;;;21.30;1.00;;;;;;5052042;28;20379;-62
2022/05/11 01:48:26;;;;;;;8.40;6.70;;;21.30;1.00;;;;;;5050653;28;20119;-62
2022/05/11 01:50:53;;;;;;;8.73;7.32;;;21.20;1.00;;;;;;5051462;28;20029;-62
2022/05/11 01:53:19;;;;;;;10.55;7.38;;;21.20;1.00;;;;;;5051193;28;20024;-63
2022/05/11 01:55:45;;;;;;;10.95;6.68;;;21.10;1.00;;;;;;5051344;28;20390;-63
2022/05/11 01:58:12;;;;;;;11.05;7.40;;;21.10;1.00;;;;;;5067294;28;20438;-63
2022/05/11 02:00:40;;;;;;;10.57;7.55;;;21.10;1.00;;;;;;5051002;28;20076;-63
2022/05/11 02:03:05;;;;;;;13.25;7.68;;;21.10;1.00;;;;;;5051096;28;20025;-63
2022/05/11 02:08:17;;;;;;;8.88;7.15;;;21.10;1.00;;;;;;5050415;28;20116;-63
2022/05/11 02:10:43;;;;;;;19.02;7.85;;;21.00;1.00;;;;;;5051021;28;20027;-62
2022/05/11 02:13:09;;;;;;;14.25;8.25;;;21.00;1.00;;;;;;5049985;28;20112;-64
2022/05/11 02:15:36;;;;;;;12.60;7.93;;;20.90;1.00;;;;;;5051784;28;20474;-63
2022/05/11 02:18:02;;;;;;;13.18;7.88;;;20.90;1.00;;;;;;5049324;28;20351;-63
2022/05/11 02:20:28;;;;;;;12.32;7.45;;;20.90;1.00;;;;;;5046077;28;20073;-63
2022/05/11 02:22:54;;;;;;;11.13;8.02;;;20.90;1.00;;;;;;5050996;28;20052;-63
2022/05/11 02:25:19;;;;;;;14.35;7.88;;;20.90;1.00;;;;;;5052090;28;20074;-63
2022/05/11 02:27:48;;;;;;;10.98;8.18;;;20.80;1.00;;;;;;5044027;28;20029;-63
2022/05/11 02:30:17;;;;;;;9.43;7.90;;;20.80;1.00;;;;;;5044898;28;20079;-62
2022/05/11 02:32:43;;;;;;;12.38;7.97;;;20.90;1.00;;;;;;5048583;28;20360;-63
2022/05/11 02:35:12;;;;;;;9.45;7.65;;;20.90;1.00;;;;;;5046580;28;20104;-63
2022/05/11 02:37:46;;;;;;;8.07;7.15;;;20.80;1.00;;;;;;5041794;28;20029;-63
2022/05/11 02:40:14;;;;;;;10.13;7.03;;;20.80;1.00;;;;;;5033868;28;20040;-63
2022/05/11 02:42:40;;;;;;;8.65;7.43;;;20.80;1.00;;;;;;5066179;28;20029;-63
2022/05/11 02:45:07;;;;;;;8.63;7.70;;;20.80;1.00;;;;;;5039154;28;20099;-63
2022/05/11 02:47:33;;;;;;;11.75;7.80;;;20.80;1.00;;;;;;5049583;28;20045;-63
2022/05/11 02:49:58;;;;;;;13.27;8.18;;;20.80;1.00;;;;;;5042709;28;20082;-63
2022/05/11 02:52:24;;;;;;;12.00;8.05;;;20.70;1.00;;;;;;5050433;28;20455;-64
2022/05/11 02:54:50;;;;;;;7.82;7.03;;;20.80;1.00;;;;;;5050043;28;20025;-64
2022/05/11 02:57:16;;;;;;;16.48;8.52;;;20.80;1.00;;;;;;5049675;28;20460;-63
2022/05/11 02:59:44;;;;;;;11.13;7.72;;;20.70;1.00;;;;;;5050591;28;20545;-63
2022/05/11 03:05:32;;;;;;;12.30;8.40;;;20.70;1.00;;;;;;5049505;28;20099;-63
2022/05/11 03:07:58;;;;;;;9.73;6.93;;;20.70;1.00;;;;;;5054913;28;20446;-63
2022/05/11 03:10:24;;;;;;;9.88;7.43;;;20.60;1.00;;;;;;5055196;28;20025;-63
2022/05/11 03:12:49;;;;;;;10.10;7.53;;;20.60;1.00;;;;;;5054036;28;20029;-63
2022/05/11 03:15:15;;;;;;;13.07;8.52;;;20.60;1.00;;;;;;5053846;28;20394;-63
2022/05/11 03:17:41;;;;;;;10.32;7.40;;;20.50;1.00;;;;;;5054116;28;20389;-63
2022/05/11 03:20:09;;;;;;;11.55;7.35;;;20.50;1.00;;;;;;5054655;28;20041;-63
2022/05/11 03:22:35;;;;;;;11.27;7.75;;;20.50;1.00;;;;;;5053986;28;20036;-64
2022/05/11 03:25:01;;;;;;;9.88;7.55;;;20.50;1.00;;;;;;5053932;28;20036;-63
2022/05/11 03:27:27;;;;;;;11.70;8.73;;;20.50;1.00;;;;;;5052668;28;20171;-63
2022/05/11 03:29:54;;;;;;;10.73;7.93;;;20.50;1.00;;;;;;5053061;28;20040;-63
2022/05/11 03:35:06;;;;;;;12.50;8.10;;;20.50;1.00;;;;;;5053898;28;20035;-63
2022/05/11 03:37:33;;;;;;;11.63;7.43;;;20.40;1.00;;;;;;5051496;28;20523;-62
2022/05/11 03:40:00;;;;;;;13.57;8.40;;;20.40;1.00;;;;;;5051509;28;20044;-62
2022/05/11 03:42:30;;;;;;;11.27;8.02;;;20.30;1.00;;;;;;5053007;28;20028;-62
2022/05/11 03:45:03;;;;;;;15.70;8.40;;;20.30;1.00;;;;;;5046268;28;20030;-63
2022/05/11 03:47:29;;;;;;;10.38;8.25;;;20.40;1.00;;;;;;5053439;28;20068;-62
2022/05/11 03:49:54;;;;;;;11.00;8.13;;;20.40;1.00;;;;;;5054413;28;20474;-62
2022/05/11 03:52:22;;;;;;;8.90;8.00;;;20.30;1.00;;;;;;5051553;28;20063;-63
2022/05/11 03:54:48;;;;;;;9.27;7.60;;;20.30;1.00;;;;;;5069308;28;20417;-63
2022/05/11 03:57:14;;;;;;;10.35;8.10;;;20.30;1.00;;;;;;5053393;28;20106;-63
2022/05/11 03:59:40;;;;;;;10.90;8.07;;;20.30;1.00;;;;;;5052672;28;20490;-63
2022/05/11 04:02:05;;;;;;;12.93;8.25;;;20.30;1.00;;;;;;5053459;28;20031;-63
2022/05/11 04:04:31;;;;;;;11.57;8.80;;;20.30;1.00;;;;;;5053898;28;20033;-63
2022/05/11 04:06:57;;;;;;;10.70;8.15;;;20.30;1.00;;;;;;5052283;28;20025;-62
2022/05/11 04:09:22;;;;;;;9.38;7.45;;;20.30;1.00;;;;;;5053983;28;20025;-63
2022/05/11 04:11:48;;;;;;;11.38;8.05;;;20.20;1.00;;;;;;5051897;28;20058;-63
2022/05/11 04:14:13;;;;;;;11.40;8.10;;;20.20;1.00;;;;;;5052883;28;20097;-63
2022/05/11 04:16:39;;;;;;;12.60;8.30;;;20.30;1.00;;;;;;5053354;28;20037;-62
2022/05/11 04:19:05;;;;;;;12.23;8.07;;;20.30;1.00;;;;;;5053794;28;20501;-63
2022/05/11 04:21:30;;;;;;;12.20;7.90;;;20.20;1.00;;;;;;5052763;28;20152;-63
2022/05/11 04:23:56;;;;;;;9.65;7.50;;;20.20;1.00;;;;;;5053614;28;20033;-63
2022/05/11 04:26:22;;;;;;;12.25;7.85;;;20.20;1.00;;;;;;5067337;28;20033;-63
2022/05/11 04:28:47;;;;;;;12.02;7.90;;;20.30;1.00;;;;;;5053598;28;20029;-63
2022/05/11 04:31:13;;;;;;;9.90;7.10;;;20.30;1.00;;;;;;5052887;28;20060;-63
2022/05/11 04:33:39;;;;;;;10.57;7.60;;;20.20;1.00;;;;;;5047173;28;20033;-63
2022/05/11 04:36:05;;;;;;;10.38;7.47;;;20.20;1.00;;;;;;5039893;28;20029;-64
2022/05/11 04:38:32;;;;;;;12.40;7.43;;;20.10;1.00;;;;;;5052680;28;20044;-63
2022/05/11 04:40:57;;;;;;;11.00;7.93;;;20.10;1.00;;;;;;5053609;28;20037;-63
2022/05/11 04:43:23;;;;;;;11.27;7.82;;;20.20;1.00;;;;;;5044398;28;20029;-63
2022/05/11 04:45:49;;;;;;;8.77;7.63;;;20.20;1.00;;;;;;5033510;28;20021;-62
2022/05/11 04:48:17;;;;;;;10.95;7.75;;;20.20;1.00;;;;;;5048879;28;20118;-63
2022/05/11 04:50:44;;;;;;;10.70;8.65;;;20.20;1.00;;;;;;5053286;28;20021;-63
2022/05/11 04:53:12;;;;;;;10.95;8.30;;;20.20;1.00;;;;;;5051710;28;20028;-63
2022/05/11 04:55:38;;;;;;;15.25;8.45;;;20.10;1.00;;;;;;5053194;28;20075;-63
2022/05/11 04:58:04;;;;;;;13.27;9.05;;;20.20;1.00;;;;;;5052016;28;20033;-63
2022/05/11 05:00:31;;;;;;;13.00;9.35;;;20.20;1.00;;;;;;5052788;28;20036;-63
2022/05/11 05:02:57;;;;;;;13.63;8.77;;;20.20;1.00;;;;;;5051862;28;20090;-63
2022/05/11 05:05:23;;;;;;;9.90;8.38;;;20.20;1.00;;;;;;5052211;28;20124;-63
2022/05/11 05:07:48;;;;;;;14.90;8.82;;;20.20;1.00;;;;;;5051942;28;20484;-63
2022/05/11 05:10:15;;;;;;;10.25;8.27;;;20.20;1.00;;;;;;5053026;28;20447;-63
2022/05/11 05:12:42;;;;;;;12.98;8.38;;;20.20;1.00;;;;;;5051578;28;20032;-63
2022/05/11 05:15:10;;;;;;;12.27;8.75;;;20.20;1.00;;;;;;5052727;28;20087;-63
2022/05/11 05:17:37;;;;;;;9.57;8.23;;;20.20;1.00;;;;;;5051597;28;20029;-64
2022/05/11 05:20:04;;;;;;;12.13;8.27;;;20.20;1.00;;;;;;5032389;28;20037;-63
2022/05/11 05:22:30;;;;;;;14.77;8.40;;;20.20;1.00;;;;;;5040973;28;20056;-63
2022/05/11 05:24:56;;;;;;;10.25;8.63;;;20.20;1.00;;;;;;5052264;28;20075;-62
2022/05/11 05:27:21;;;;;;;12.43;8.63;;;20.20;1.00;;;;;;5051438;28;20033;-63
2022/05/11 05:32:37;;;;;;;14.98;8.00;;;20.20;1.00;;;;;;5050906;28;20402;-62
2022/05/11 05:35:05;;;;;;;10.68;7.50;;;20.20;1.00;;;;;;5049469;28;20028;-62
2022/05/11 05:37:30;;;;;;;9.82;7.63;;;20.20;1.00;;;;;;5050657;28;20342;-63
2022/05/11 05:39:56;;;;;;;12.60;8.30;;;20.20;1.00;;;;;;5052172;28;20132;-64
2022/05/11 05:42:23;;;;;;;11.32;8.27;;;20.20;1.00;;;;;;5050455;28;20035;-63
2022/05/11 05:44:49;;;;;;;11.82;7.28;;;20.20;1.00;;;;;;5051601;28;20448;-62
2022/05/11 05:47:18;;;;;;;11.25;7.97;;;20.20;1.00;;;;;;5064729;28;20132;-63
2022/05/11 05:49:44;;;;;;;12.27;7.85;;;20.20;1.00;;;;;;5052217;28;20024;-63
2022/05/11 05:52:17;;;;;;;11.90;7.68;;;20.20;1.00;;;;;;5049859;28;20056;-62
2022/05/11 05:54:43;;;;;;;11.70;7.63;;;20.20;1.00;;;;;;5049249;28;20021;-63
2022/05/11 05:57:09;;;;;;;9.60;7.25;;;20.20;1.00;;;;;;5048497;28;20032;-62
2022/05/11 05:59:34;;;;;;;13.73;7.43;;;20.20;1.00;;;;;;5051696;28;20033;-62
2022/05/11 06:02:00;;;;;;;9.40;7.93;;;20.20;1.00;;;;;;5050501;28;20047;-62
2022/05/11 06:04:26;;;;;;;14.70;8.27;;;20.20;1.00;;;;;;5050325;28;20037;-62
2022/05/11 06:06:52;;;;;;;11.48;8.40;;;20.20;1.00;;;;;;5051149;28;20086;-63
2022/05/11 06:09:18;;;;;;;9.00;7.93;;;20.20;1.00;;;;;;5051971;28;20029;-62
2022/05/11 06:11:44;;;;;;;14.10;7.93;;;20.20;1.00;;;;;;5049942;28;20029;-63
2022/05/11 06:14:10;;;;;;;11.50;7.43;;;20.20;1.00;;;;;;5051421;28;20025;-63
2022/05/11 06:16:36;;;;;;;11.07;8.20;;;20.20;1.00;;;;;;5051164;28;20163;-63
2022/05/11 06:19:01;;;;;;;12.00;7.60;;;20.20;1.00;;;;;;5050830;28;20052;-62
2022/05/11 06:21:27;;;;;;;16.23;8.57;;;20.20;1.00;;;;;;5050589;28;20040;-62
2022/05/11 06:23:53;;;;;;;17.17;9.40;;;20.20;1.00;;;;;;5049550;28;20025;-62
2022/05/11 06:26:19;;;;;;;11.45;8.25;;;20.20;1.00;;;;;;5050572;28;20036;-62
2022/05/11 06:28:46;;;;;;;11.20;8.52;;;20.30;1.00;;;;;;5043304;28;20104;-63
2022/05/11 06:31:14;;;;;;;10.48;7.63;;;20.20;1.00;;;;;;5047938;28;20036;-63
2022/05/11 06:33:39;;;;;;;11.75;7.78;;;20.30;1.00;;;;;;5047730;28;20029;-63
2022/05/11 06:36:07;;;;;;;11.35;8.02;;;20.30;1.00;;;;;;5043994;28;20100;-63
2022/05/11 06:38:34;;;;;;;12.38;8.23;;;20.30;1.00;;;;;;5054152;28;20363;-62
2022/05/11 06:41:10;;;;;;;14.98;8.75;;;20.30;1.00;;;;;;5055151;28;20359;-62
2022/05/11 06:43:36;;;;;;;11.57;8.73;;;20.30;1.00;;;;;;5054820;28;20105;-63
2022/05/11 06:46:02;;;;;;;12.68;9.23;;;20.30;1.00;;;;;;5053601;28;20376;-63
2022/05/11 06:48:27;;;;;;;14.70;9.50;;;20.40;1.00;;;;;;5054302;28;20028;-63
2022/05/11 06:50:53;;;;;;;11.50;9.40;;;20.30;1.00;;;;;;5054691;28;20039;-63
2022/05/11 06:53:19;;;;;;;12.32;9.95;;;20.30;1.00;;;;;;5046089;28;20087;-63
2022/05/11 07:01:15;;;;;;;10.57;7.60;;;20.50;1.00;;;;;;5045329;28;20033;-63
2022/05/11 07:03:42;;;;;;;11.82;8.35;;;20.50;1.00;;;;;;5050056;28;20030;-63
2022/05/11 07:06:08;;;;;;;12.75;7.63;;;20.50;1.00;;;;;;5042501;28;20033;-63
2022/05/11 07:08:40;;;;;;;9.32;7.97;;;20.60;1.00;;;;;;5054507;28;20489;-63
2022/05/11 07:13:53;;;;;;;12.45;7.93;;;20.60;1.00;;;;;;5050660;28;20095;-63
2022/05/11 07:16:19;;;;;;;11.20;8.27;;;20.70;1.00;;;;;;5054928;28;20111;-63
2022/05/11 07:18:45;;;;;;;9.40;8.10;;;20.80;1.00;;;;;;5053473;28;20493;-64
2022/05/11 07:21:11;;;;;;;12.07;7.75;;;20.80;1.00;;;;;;5053737;28;20466;-63
2022/05/11 07:23:37;;;;;;;14.00;9.18;;;20.70;1.00;;;;;;5054141;28;20420;-63
2022/05/11 07:26:03;;;;;;;11.60;8.55;;;20.80;1.00;;;;;;5052839;28;20029;-56
2022/05/11 07:28:29;;;;;;;15.82;9.05;;;20.80;1.00;;;;;;5046332;28;20025;-55
2022/05/11 07:30:54;;;;;;;15.18;9.48;;;20.80;1.00;;;;;;5054515;28;20419;-55
2022/05/11 07:33:21;;;;;;;14.30;8.48;;;20.90;1.00;;;;;;5053962;28;20186;-55
2022/05/11 07:35:47;;;;;;;13.30;8.38;;;20.90;1.00;;;;;;5053709;28;20033;-55
2022/05/11 07:38:14;;;;;;;14.27;8.50;;;20.90;1.00;;;;;;5052746;28;20363;-57
2022/05/11 07:40:41;;;;;;;11.25;8.65;;;20.90;1.00;;;;;;5054196;28;20037;-57
2022/05/11 07:43:08;;;;;;;12.82;8.07;;;21.00;1.00;;;;;;5053109;28;20370;-55
2022/05/11 07:45:35;;;;;;;16.02;8.38;;;21.00;1.00;;;;;;5053804;28;20041;-57
2022/05/11 07:48:00;;;;;;;17.67;8.90;;;21.10;1.00;;;;;;5068628;28;20049;-56
2022/05/11 07:50:26;;;;;;;14.52;9.15;;;21.10;1.00;;;;;;5054527;28;20021;-56
2022/05/11 07:52:54;;;;;;;12.02;8.65;;;21.10;1.00;;;;;;5048417;28;20033;-57
2022/05/11 07:55:20;;;;;;;10.45;8.45;;;21.20;1.00;;;;;;5039241;28;20033;-57
2022/05/11 08:00:31;;;;;;;;;;;21.20;1.00;;;;;;5045538;28;20067;-57
2022/05/11 08:02:56;;;;;;;12.35;8.30;;;21.20;1.00;;;;;;5039952;28;19916;-56
2022/05/11 08:05:23;;;;;;;13.93;9.05;;;21.20;1.00;;;;;;5052312;28;20057;-57
2022/05/11 08:07:52;;;;;;;15.48;9.05;;;21.30;1.00;;;;;;5035651;28;20112;-57
2022/05/11 08:10:40;;;;;;;14.93;10.68;;;21.40;1.00;;;;;;5043166;28;20399;-57
2022/05/11 08:13:07;;;;;;;14.55;10.00;;;21.40;1.00;;;;;;5036835;28;20052;-57
2022/05/11 08:15:35;;;;;;;10.75;9.35;;;21.30;1.00;;;;;;5047491;28;20131;-57
2022/05/11 08:18:01;;;;;;;15.43;9.85;;;21.40;1.00;;;;;;5053896;28;20029;-57
2022/05/11 08:20:29;;;;;;;12.70;8.77;;;21.40;1.00;;;;;;5053351;28;20477;-57
2022/05/11 08:22:57;;;;;;;9.82;8.82;;;21.50;1.00;;;;;;5052886;28;20056;-57
2022/05/11 08:25:25;;;;;;;14.82;8.45;;;21.50;1.00;;;;;;5052149;28;20035;-59
2022/05/11 08:27:52;;;;;;;12.00;9.32;;;21.60;1.00;;;;;;5053125;28;20031;-57
2022/05/11 08:33:23;;;;;;;16.70;9.50;;;21.70;1.00;;;;;;5052612;28;20044;-50
2022/05/11 08:36:03;;;;;;;12.32;8.57;;;21.70;1.00;;;;;;5068341;28;20025;-54
2022/05/11 08:38:39;;;;;;;13.38;9.05;;;21.70;1.00;;;;;;5039579;28;20108;-50
2022/05/11 08:41:48;;;;;;;11.73;8.70;;;21.90;1.00;;;;;;5035665;28;20060;-50
2022/05/11 08:44:21;;;;;;;9.25;7.65;;;21.80;1.00;;;;;;5041965;28;20119;-54
2022/05/11 08:46:59;;;;;;;11.52;8.30;;;21.90;1.00;;;;;;5052321;28;20386;-53
2022/05/11 08:49:46;;;;;;;10.77;9.10;;;22.00;1.00;;;;;;5042432;28;20025;-51
2022/05/11 08:52:40;;;;;;;13.13;7.93;;;22.00;1.00;;;;;;5052453;28;20027;-54
2022/05/11 08:55:22;;;;;;;9.82;8.27;;;22.10;1.00;;;;;;5052378;28;20458;-55
2022/05/11 08:57:49;;;;;;;9.85;7.07;;;22.10;1.00;;;;;;5067030;28;20033;-55
2022/05/11 09:00:18;;;;;;;11.20;7.53;;;22.10;1.00;;;;;;5068095;28;20041;-54
2022/05/11 09:02:43;;;;;;;10.75;8.43;;;22.20;1.00;;;;;;5058091;28;20064;-57
2022/05/11 09:05:11;;;;;;;11.48;7.57;;;22.20;1.00;;;;;;5033645;28;20127;-53
2022/05/11 09:07:40;;;;;;;12.75;8.35;;;22.20;1.00;;;;;;5047070;28;20029;-55
2022/05/11 09:10:07;;;;;;;10.80;7.80;;;22.20;1.00;;;;;;5052639;28;20154;-54
2022/05/11 09:12:34;;;;;;;11.50;7.90;;;22.20;1.00;;;;;;5043920;28;20532;-59
2022/05/11 09:15:03;;;;;;;9.30;7.30;;;22.30;1.00;;;;;;5038257;28;20394;-58
2022/05/11 09:17:30;;;;;;;13.85;7.47;;;22.40;1.00;;;;;;5051446;28;20081;-59
2022/05/11 09:20:15;;;;;;;13.57;8.55;;;22.50;1.00;;;;;;5053210;28;20041;-57
2022/05/11 09:23:02;;;;;;;8.45;7.18;;;22.50;1.00;;;;;;5051291;28;20029;-58
2022/05/11 09:25:37;;;;;;;10.45;7.68;;;22.50;1.00;;;;;;5053208;28;20359;-59
2022/05/11 09:28:37;;;;;;;15.18;9.32;;;22.60;1.00;;;;;;5063721;28;20032;-55
2022/05/11 09:31:13;;;;;;;10.13;7.22;;;22.70;1.00;;;;;;5045555;28;20429;-57
2022/05/11 09:33:55;;;;;;;16.08;9.77;;;22.70;1.00;;;;;;5044827;28;20112;-59
2022/05/11 09:36:38;;;;;;;10.50;7.45;;;22.80;1.00;;;;;;5052026;28;20029;-52
2022/05/11 09:39:13;;;;;;;16.83;8.25;;;22.80;1.00;;;;;;5052784;28;20102;-57
2022/05/11 09:41:40;;;;;;;12.48;7.57;;;22.90;1.00;;;;;;5050805;28;20033;-56
2022/05/11 09:44:44;;;;;;;10.68;7.05;;;22.90;1.00;;;;;;5050841;28;20021;-56
2022/05/11 09:47:30;;;;;;;11.48;7.63;;;23.00;1.00;;;;;;5051627;28;20079;-63
2022/05/11 09:50:16;;;;;;;8.50;6.40;;;23.00;1.00;;;;;;5042394;28;20029;-63
2022/05/11 09:52:41;;;;;;;10.98;7.25;;;23.00;1.00;;;;;;5051575;28;20025;-64
2022/05/11 09:55:18;;;;;;;13.02;7.30;;;23.10;1.00;;;;;;5052209;28;20029;-63
2022/05/11 09:57:53;;;;;;;9.43;8.00;;;23.20;1.00;;;;;;5051717;28;20505;-63
2022/05/11 10:00:23;;;;;;;12.10;7.72;;;23.20;1.00;;;;;;5051908;28;20041;-50
2022/05/11 10:02:52;;;;;;;9.88;7.22;;;23.20;1.00;;;;;;5051477;28;20032;-50
2022/05/11 10:05:28;;;;;;;10.75;8.13;;;23.20;1.00;;;;;;5052196;28;20387;-48
2022/05/11 10:08:13;;;;;;;25.45;16.35;;;23.30;1.00;;;;;;5051597;28;20379;-50
2022/05/11 10:10:59;;;;;;;36.72;23.05;;;23.30;1.00;;;;;;5049689;28;20390;-50
2022/05/11 10:13:28;;;;;;;31.98;19.10;;;23.30;1.00;;;;;;5048028;28;20029;-49
2022/05/11 10:21:54;;;;;;;22.05;13.55;;;23.70;1.00;;;;;;5033833;28;20037;-49
2022/05/11 10:24:45;;;;;;;14.90;9.65;;;23.70;1.00;;;;;;5038843;28;20030;-50
2022/05/11 10:27:11;;;;;;;9.77;5.70;;;23.70;1.00;;;;;;5038997;28;20037;-50
2022/05/11 10:29:48;;;;;;;8.45;7.05;;;23.70;1.00;;;;;;5050493;28;20040;-52
2022/05/11 10:32:24;;;;;;;14.98;11.48;;;24.00;1.00;;;;;;5047975;28;20494;-55
2022/05/11 10:34:59;;;;;;;11.77;7.43;;;23.90;1.00;;;;;;5044862;28;20110;-58
2022/05/11 10:37:42;;;;;;;11.05;8.70;;;24.00;1.00;;;;;;5048848;28;20482;-57
2022/05/11 10:40:50;;;;;;;11.50;6.63;;;24.00;1.00;;;;;;5045101;28;20088;-56
2022/05/11 10:43:15;;;;;;;12.55;6.47;;;24.00;1.00;;;;;;5049602;28;20021;-51
2022/05/11 10:46:11;;;;;;;13.77;7.07;;;24.10;1.00;;;;;;5051415;28;20509;-53
2022/05/11 10:48:54;;;;;;;11.95;6.57;;;24.20;1.00;;;;;;5050627;28;20033;-57
2022/05/11 10:51:52;;;;;;;8.75;6.60;;;24.30;1.00;;;;;;5031896;28;20383;-59
2022/05/11 10:54:36;;;;;;;9.10;6.07;;;24.40;1.00;;;;;;5046272;28;20029;-58
2022/05/11 10:57:10;;;;;;;13.27;7.38;;;24.40;1.00;;;;;;5044340;28;20029;-59
2022/05/11 10:59:44;;;;;;;8.68;5.85;;;24.40;1.00;;;;;;5046866;28;20056;-61
2022/05/11 11:02:37;;;;;;;12.18;6.95;;;24.50;1.00;;;;;;5044319;28;20040;-62
2022/05/11 11:05:42;;;;;;;11.65;6.75;;;24.70;1.00;;;;;;5047881;28;20033;-60
2022/05/11 11:08:12;;;;;;;6.50;5.28;;;24.80;1.00;;;;;;5046599;28;20044;-61
2022/05/11 11:11:20;;;;;;;8.93;5.15;;;24.90;1.00;;;;;;5042693;28;20041;-61
2022/05/11 11:14:00;;;;;;;7.57;5.70;;;25.00;1.00;;;;;;5036539;28;20120;-62
2022/05/11 11:16:36;;;;;;;9.88;5.97;;;25.10;1.00;;;;;;5049487;28;20208;-62
2022/05/11 11:19:06;;;;;;;10.30;5.57;;;25.20;1.00;;;;;;5048766;28;20116;-62
2022/05/11 11:21:33;;;;;;;7.95;5.60;;;25.40;1.00;;;;;;5049181;28;20040;-62
2022/05/11 11:24:23;;;;;;;8.68;6.00;;;25.50;1.00;;;;;;5051214;28;20029;-62
2022/05/11 11:27:00;;;;;;;7.30;5.30;;;25.70;1.00;;;;;;5052542;28;20033;-62
2022/05/11 11:29:28;;;;;;;6.93;5.53;;;25.70;1.00;;;;;;5052061;28;20029;-62
2022/05/11 11:32:20;;;;;;;9.18;5.57;;;25.90;1.00;;;;;;5054912;28;20041;-62
2022/05/11 11:35:21;;;;;;;5.38;4.72;;;26.00;1.00;;;;;;5037880;28;20156;-62
2022/05/11 11:37:59;;;;;;;8.05;5.05;;;26.20;1.00;;;;;;5035129;28;20128;-63
2022/05/11 11:40:26;;;;;;;6.85;5.35;;;26.70;1.00;;;;;;5034815;28;20053;-63
2022/05/11 11:42:53;;;;;;;6.43;5.22;;;27.10;1.00;;;;;;5038713;28;20029;-63
2022/05/11 11:45:26;;;;;;;10.35;5.47;;;27.60;1.00;;;;;;5068878;28;20494;-63
2022/05/11 11:48:03;;;;;;;7.53;5.60;;;27.90;1.00;;;;;;5053926;28;20045;-63
2022/05/11 11:50:58;;;;;;;10.38;5.43;;;27.90;1.00;;;;;;5054702;28;20029;-63
2022/05/11 11:53:35;;;;;;;7.53;5.78;;;28.00;1.00;;;;;;5039102;28;20029;-63
2022/05/11 11:56:23;;;;;;;6.57;5.32;;;27.90;1.00;;;;;;5054692;28;20186;-62
2022/05/11 11:59:00;;;;;;;6.80;6.15;;;28.10;1.00;;;;;;5048324;28;20120;-62
2022/05/11 12:01:28;;;;;;;6.05;5.50;;;28.30;1.00;;;;;;5054424;28;20040;-62
2022/05/11 12:03:59;;;;;;;9.57;6.03;;;28.40;1.00;;;;;;5053540;28;20021;-61
2022/05/11 12:15:03;;;;;;;6.43;5.45;;;33.00;1.00;;;;;;5047774;28;20036;-62
2022/05/11 12:17:39;;;;;;;6.47;5.85;;;33.30;1.00;;;;;;5045912;28;20416;-62
2022/05/11 12:20:22;;;;;;;7.50;5.97;;;34.00;1.00;;;;;;5046769;28;20028;-62
2022/05/11 12:22:52;;;;;;;6.03;5.38;;;33.90;1.00;;;;;;5046672;28;20443;-62
2022/05/11 12:28:44;;;;;;;6.05;5.55;;;32.90;1.00;;;;;;5044620;28;20036;-63
2022/05/11 12:31:31;;;;;;;12.43;5.30;;;32.00;1.00;;;;;;5044078;28;20048;-62
2022/05/11 12:33:57;;;;;;;7.63;5.18;;;31.50;1.00;;;;;;5048186;28;20035;-63
2022/05/11 12:36:34;;;;;;;7.00;5.93;;;31.40;1.00;;;;;;5050469;28;20033;-63
2022/05/11 12:39:00;;;;;;;9.48;7.18;;;31.60;1.00;;;;;;5049767;28;20036;-63
2022/05/11 12:41:27;;;;;;;9.80;8.18;;;31.40;1.00;;;;;;5048612;28;20036;-62
2022/05/11 12:43:56;;;;;;;6.70;6.10;;;32.70;1.00;;;;;;5043490;28;20450;-63
2022/05/11 12:46:23;;;;;;;8.15;7.18;;;34.60;1.00;;;;;;5058743;28;20049;-63
2022/05/11 12:49:00;;;;;;;5.75;5.35;;;36.60;1.00;;;;;;5049741;28;20025;-63
2022/05/11 12:51:33;;;;;;;6.20;5.53;;;38.00;1.00;;;;;;5053171;28;20479;-63
2022/05/11 12:54:02;;;;;;;7.82;6.45;;;39.00;1.00;;;;;;5048144;28;20028;-63
2022/05/11 12:56:31;;;;;;;8.10;6.20;;;38.80;1.00;;;;;;5050860;28;20044;-62
2022/05/11 12:59:00;;;;;;;6.68;4.95;;;38.80;1.00;;;;;;5047294;28;20032;-63
2022/05/11 13:01:29;;;;;;;6.57;6.03;;;38.20;1.00;;;;;;5046208;28;20052;-63
2022/05/11 13:03:58;;;;;;;5.55;5.10;;;37.30;1.00;;;;;;5047720;28;20025;-62
2022/05/11 13:06:38;;;;;;;7.57;6.28;;;36.90;1.00;;;;;;5050152;28;20111;-63
2022/05/11 13:09:06;;;;;;;5.70;5.20;;;35.70;1.00;;;;;;5044439;28;20036;-63
2022/05/11 13:11:33;;;;;;;5.28;4.88;;;34.80;1.00;;;;;;5046750;28;20068;-62
2022/05/11 13:14:00;;;;;;;7.18;5.25;;;34.50;1.00;;;;;;5051113;28;20021;-63
2022/05/11 13:16:32;;;;;;;6.50;5.90;;;34.50;1.00;;;;;;5048015;28;20025;-63
2022/05/11 13:19:19;;;;;;;4.97;4.55;;;35.00;1.00;;;;;;5046511;28;20037;-63
2022/05/11 13:21:47;;;;;;;5.30;4.80;;;36.10;1.00;;;;;;5048784;28;20416;-63
2022/05/11 13:24:12;;;;;;;6.10;5.50;;;36.90;1.00;;;;;;5050487;28;20028;-63
2022/05/11 13:26:44;;;;;;;6.28;5.10;;;38.90;1.00;;;;;;5045138;28;20033;-62
2022/05/11 13:29:26;;;;;;;5.25;4.85;;;38.90;1.00;;;;;;5051376;28;20021;-63
2022/05/11 13:32:10;;;;;;;4.65;4.25;;;39.80;1.00;;;;;;5034211;28;20099;-62
2022/05/11 13:34:41;;;;;;;5.47;5.07;;;40.80;1.00;;;;;;5046382;28;20033;-62
2022/05/11 13:37:26;;;;;;;5.80;4.47;;;42.20;1.00;;;;;;5047197;28;21742;-62
2022/05/11 13:39:52;;;;;;;8.13;5.47;;;41.50;1.00;;;;;;5046334;28;20035;-62
2022/05/11 13:42:28;;;;;;;6.47;5.18;;;38.60;1.00;;;;;;5048516;28;20418;-62
2022/05/11 13:45:04;;;;;;;6.38;5.60;;;36.70;1.00;;;;;;5046045;28;20104;-63
2022/05/11 13:50:45;;;;;;;7.05;5.00;;;35.10;1.00;;;;;;5051800;28;20564;-62
2022/05/11 13:53:16;;;;;;;8.18;5.53;;;34.70;1.00;;;;;;5036424;28;20028;-63
2022/05/11 13:55:57;;;;;;;8.57;6.07;;;34.50;1.00;;;;;;5051546;28;20486;-63
2022/05/11 13:58:29;;;;;;;5.53;4.68;;;34.20;1.00;;;;;;5042711;28;20470;-62